Time;durP1;ratioP1;P1;durP2;ratioP2;P2;SDS_P1;SDS_P2;PMS_P1;PMS_P2;Temp;Humidity;BMP_temperature;BMP_pressure;BME280_temperature;BME280_humidity;BME280_pressure;Samples;Min_cycle;Max_cycle;Signal;HPM_P1;HPM_P2
2022/04/29 00:00:47;;;;;;;;;;;;;;;4.29;87.58;99584.03;3208435;23;20251;-79
2022/04/29 00:02:02;;;;;;;;;;;;;;;4.28;86.69;99589.22;3208938;23;19950;-79
2022/04/29 00:03:18;;;;;;;;;;;;;;;4.21;86.75;99585.66;3208535;23;20366;-78
2022/04/29 00:04:34;;;;;;;;;;;;;;;4.15;86.85;99583.81;3208548;23;20290;-78
2022/04/29 00:05:50;;;;;;;;;;;;;;;4.21;86.51;99588.22;3208774;23;19924;-81
2022/04/29 00:07:06;;;;;;;;;;;;;;;4.25;87.46;99584.84;3208836;23;19992;-79
2022/04/29 00:08:21;;;;;;;;;;;;;;;4.23;88.07;99578.75;3208723;23;19955;-78
2022/04/29 00:09:37;;;;;;;;;;;;;;;4.26;88.45;99580.50;3208071;23;20331;-78
2022/04/29 00:10:52;;;;;;;;;;;;;;;4.21;88.63;99581.31;3208373;23;20785;-78
2022/04/29 00:12:08;;;;;;;;;;;;;;;4.21;88.77;99583.06;3208506;23;19947;-78
2022/04/29 00:13:23;;;;;;;;;;;;;;;4.22;88.72;99580.47;3208062;23;19926;-78
2022/04/29 00:14:39;;;;;;;;;;;;;;;4.24;88.19;99575.31;3208627;23;19924;-78
2022/04/29 00:15:55;;;;;;;;;;;;;;;4.13;88.19;99574.25;3208424;23;20083;-78
2022/04/29 00:17:10;;;;;;;;;;;;;;;4.04;88.21;99575.84;3208280;23;20472;-81
2022/04/29 00:18:26;;;;;;;;;;;;;;;3.92;87.47;99579.09;3208348;23;19927;-78
2022/04/29 00:19:41;;;;;;;;;;;;;;;3.90;87.03;99585.09;3208420;23;19947;-78
2022/04/29 00:20:57;;;;;;;;;;;;;;;3.86;87.14;99583.31;3208795;23;19973;-78
2022/04/29 00:22:12;;;;;;;;;;;;;;;3.85;89.31;99578.97;3208345;23;19928;-79
2022/04/29 00:23:27;;;;;;;;;;;;;;;3.80;91.03;99578.88;3208244;23;19924;-79
2022/04/29 00:24:43;;;;;;;;;;;;;;;3.87;90.55;99577.28;3208808;23;19928;-78
2022/04/29 00:25:59;;;;;;;;;;;;;;;3.90;90.51;99580.81;3208488;23;19970;-78
2022/04/29 00:27:14;;;;;;;;;;;;;;;3.94;89.83;99580.00;3208332;23;20006;-78
2022/04/29 00:28:30;;;;;;;;;;;;;;;3.91;89.06;99577.38;3208173;23;20343;-79
2022/04/29 00:29:46;;;;;;;;;;;;;;;3.95;88.86;99580.88;3208555;23;19920;-78
2022/04/29 00:31:01;;;;;;;;;;;;;;;3.98;88.20;99582.63;3208309;23;20005;-81
2022/04/29 00:32:17;;;;;;;;;;;;;;;4.00;88.44;99578.38;3208231;23;20254;-78
2022/04/29 00:33:32;;;;;;;;;;;;;;;3.98;88.87;99577.47;3208776;23;20107;-78
2022/04/29 00:34:51;;;;;;;;;;;;;;;3.96;89.11;99575.72;3208687;23;19923;-78
2022/04/29 00:36:07;;;;;;;;;;;;;;;3.98;89.17;99583.53;3208631;23;19923;-78
2022/04/29 00:37:22;;;;;;;;;;;;;;;4.01;88.83;99580.13;3208368;23;19924;-85
2022/04/29 00:38:37;;;;;;;;;;;;;;;3.98;88.97;99578.34;3208509;23;19999;-79
2022/04/29 00:39:53;;;;;;;;;;;;;;;3.95;89.08;99576.56;3208602;23;19931;-78
2022/04/29 00:41:09;;;;;;;;;;;;;;;3.93;89.62;99582.59;3208656;23;19977;-78
2022/04/29 00:42:24;;;;;;;;;;;;;;;3.90;89.93;99582.50;3208521;23;19920;-78
2022/04/29 00:43:39;;;;;;;;;;;;;;;3.90;89.89;99582.50;3208592;23;19927;-78
2022/04/29 00:44:55;;;;;;;;;;;;;;;3.88;89.68;99576.44;3208473;23;19927;-77
2022/04/29 00:46:11;;;;;;;;;;;;;;;3.90;89.36;99579.91;3208666;23;19924;-77
2022/04/29 00:47:26;;;;;;;;;;;;;;;3.93;89.33;99580.84;3208517;23;19999;-82
2022/04/29 00:48:42;;;;;;;;;;;;;;;3.92;89.71;99581.69;3208838;23;19951;-78
2022/04/29 00:49:57;;;;;;;;;;;;;;;3.93;89.43;99577.41;3208603;23;19943;-77
2022/04/29 00:51:13;;;;;;;;;;;;;;;3.93;89.37;99580.00;3208797;23;19928;-78
2022/04/29 00:52:30;;;;;;;;;;;;;;;3.89;89.38;99581.66;3208538;23;19923;-77
2022/04/29 00:53:45;;;;;;;;;;;;;;;3.84;88.83;99577.22;3208274;23;20371;-78
2022/04/29 00:55:04;;;;;;;;;;;;;;;3.77;89.28;99576.25;3208878;23;19923;-78
2022/04/29 00:56:20;;;;;;;;;;;;;;;3.73;89.21;99571.88;3208262;23;20370;-78
2022/04/29 00:57:41;;;;;;;;;;;;;;;3.71;88.91;99561.47;3208314;23;19930;-78
2022/04/29 00:59:05;;;;;;;;;;;;;;;3.67;88.29;99564.84;3213601;23;19951;-79
2022/04/29 01:00:22;;;;;;;;;;;;;;;3.62;88.66;99566.47;3213472;23;19924;-77
2022/04/29 01:01:37;;;;;;;;;;;;;;;3.59;88.48;99561.25;3208352;23;19920;-77
2022/04/29 01:02:54;;;;;;;;;;;;;;;3.48;89.11;99564.50;3208256;23;19934;-81
2022/04/29 01:04:11;;;;;;;;;;;;;;;3.39;89.41;99561.75;3208895;23;19924;-79
2022/04/29 01:05:27;;;;;;;;;;;;;;;3.34;90.16;99561.66;3208155;23;19935;-79
2022/04/29 01:06:42;;;;;;;;;;;;;;;3.32;90.42;99562.47;3208283;23;19935;-78
2022/04/29 01:07:58;;;;;;;;;;;;;;;3.34;90.70;99556.47;3208194;23;19924;-77
2022/04/29 01:09:14;;;;;;;;;;;;;;;3.32;90.46;99562.47;3208123;23;19951;-81
2022/04/29 01:10:30;;;;;;;;;;;;;;;3.28;90.07;99558.06;3208760;23;19924;-78
2022/04/29 01:11:45;;;;;;;;;;;;;;;3.25;89.61;99557.19;3208021;23;20362;-78
2022/04/29 01:13:02;;;;;;;;;;;;;;;3.19;89.50;99562.22;3208410;23;19943;-77
2022/04/29 01:14:17;;;;;;;;;;;;;;;3.18;89.91;99559.63;3208586;23;19931;-78
2022/04/29 01:15:35;;;;;;;;;;;;;;;3.15;90.03;99554.38;3208255;23;19928;-77
2022/04/29 01:16:50;;;;;;;;;;;;;;;3.11;89.59;99554.28;3206761;23;19920;-77
2022/04/29 01:18:08;;;;;;;;;;;;;;;3.00;89.47;99554.94;3207868;23;19991;-78
2022/04/29 01:19:25;;;;;;;;;;;;;;;2.94;89.76;99550.50;3208604;23;20343;-78
2022/04/29 01:20:41;;;;;;;;;;;;;;;2.97;89.87;99554.03;3208397;23;19924;-78
2022/04/29 01:22:00;;;;;;;;;;;;;;;3.00;89.66;99554.94;3208894;23;19927;-78
2022/04/29 01:23:15;;;;;;;;;;;;;;;2.96;89.54;99547.13;3208409;23;20303;-78
2022/04/29 01:24:30;;;;;;;;;;;;;;;2.92;89.60;99547.88;3208297;23;19969;-78
2022/04/29 01:25:46;;;;;;;;;;;;;;;2.86;90.21;99550.34;3208398;23;20354;-78
2022/04/29 01:27:06;;;;;;;;;;;;;;;2.85;90.63;99542.53;3207662;23;19923;-78
2022/04/29 01:28:23;;;;;;;;;;;;;;;2.90;91.20;99551.28;3213262;23;19923;-77
2022/04/29 01:29:40;;;;;;;;;;;;;;;2.86;90.88;99539.09;3208061;23;20635;-78
2022/04/29 01:30:59;;;;;;;;;;;;;;;2.81;91.24;99555.41;3207897;23;20331;-77
2022/04/29 01:32:15;;;;;;;;;;;;;;;2.85;92.06;99547.72;3207383;23;19923;-77
2022/04/29 01:33:32;;;;;;;;;;;;;;;2.84;91.95;99552.03;3208324;23;20406;-78
2022/04/29 01:34:47;;;;;;;;;;;;;;;2.80;90.95;99548.50;3208201;23;20305;-77
2022/04/29 01:36:03;;;;;;;;;;;;;;;2.79;90.52;99544.16;3207692;23;19932;-78
2022/04/29 01:37:18;;;;;;;;;;;;;;;2.70;90.60;99546.53;3208194;23;19927;-79
2022/04/29 01:38:34;;;;;;;;;;;;;;;2.68;90.51;99549.13;3208351;23;20271;-77
2022/04/29 01:39:49;;;;;;;;;;;;;;;2.60;90.47;99542.88;3208320;23;20263;-81
2022/04/29 01:41:05;;;;;;;;;;;;;;;2.57;90.68;99542.81;3207985;23;19952;-77
2022/04/29 01:42:21;;;;;;;;;;;;;;;2.48;90.24;99538.31;3208058;23;19950;-79
2022/04/29 01:43:36;;;;;;;;;;;;;;;2.37;91.48;99540.66;3208445;23;19924;-77
2022/04/29 01:44:52;;;;;;;;;;;;;;;2.33;93.25;99550.91;3208570;23;19920;-77
2022/04/29 01:46:08;;;;;;;;;;;;;;;2.28;93.75;99553.38;3208224;23;19919;-78
2022/04/29 01:47:23;;;;;;;;;;;;;;;2.29;94.34;99544.78;3208231;23;19930;-78
2022/04/29 01:48:38;;;;;;;;;;;;;;;2.48;95.58;99545.19;3207928;23;19950;-78
2022/04/29 01:49:54;;;;;;;;;;;;;;;2.49;94.53;99545.25;3208419;23;20426;-78
2022/04/29 01:51:09;;;;;;;;;;;;;;;2.50;93.41;99543.50;3208291;23;20586;-82
2022/04/29 01:52:25;;;;;;;;;;;;;;;2.50;92.55;99536.66;3207988;23;19923;-78
2022/04/29 01:53:40;;;;;;;;;;;;;;;2.47;91.73;99543.44;3208461;23;20291;-78
2022/04/29 01:54:56;;;;;;;;;;;;;;;2.42;91.66;99538.16;3208146;23;20006;-78
2022/04/29 01:56:11;;;;;;;;;;;;;;;2.37;91.35;99540.66;3208396;23;19924;-83
2022/04/29 01:57:27;;;;;;;;;;;;;;;2.36;91.40;99535.47;3208215;23;19924;-77
2022/04/29 01:58:42;;;;;;;;;;;;;;;2.34;91.19;99532.84;3208222;23;19924;-78
2022/04/29 01:59:58;;;;;;;;;;;;;;;2.34;91.36;99534.56;3208154;23;19923;-77
2022/04/29 02:01:13;;;;;;;;;;;;;;;2.33;91.27;99531.09;3208099;23;19979;-77
2022/04/29 02:02:29;;;;;;;;;;;;;;;2.28;91.44;99524.94;3207964;23;19919;-79
2022/04/29 02:03:44;;;;;;;;;;;;;;;2.17;91.42;99531.56;3207831;23;19920;-77
2022/04/29 02:04:59;;;;;;;;;;;;;;;2.11;91.35;99534.88;3208115;23;19959;-77
2022/04/29 02:06:15;;;;;;;;;;;;;;;2.07;91.09;99533.94;3208329;23;19934;-78
2022/04/29 02:07:31;;;;;;;;;;;;;;;1.97;91.69;99537.16;3207920;23;20019;-79
2022/04/29 02:08:49;;;;;;;;;;;;;;;1.97;92.42;99529.41;3208162;23;19923;-79
2022/04/29 02:10:05;;;;;;;;;;;;;;;1.95;93.51;99528.47;3208276;23;19920;-77
2022/04/29 02:11:21;;;;;;;;;;;;;;;1.97;94.05;99537.16;3207976;23;19974;-81
2022/04/29 02:12:36;;;;;;;;;;;;;;;2.01;93.99;99532.91;3208259;23;19946;-77
2022/04/29 02:13:52;;;;;;;;;;;;;;;1.97;93.48;99522.50;3208023;23;19924;-77
2022/04/29 02:15:08;;;;;;;;;;;;;;;1.97;92.96;99526.81;3208229;23;19943;-80
2022/04/29 02:16:24;;;;;;;;;;;;;;;1.93;92.49;99525.84;3213025;23;19928;-78
2022/04/29 02:17:39;;;;;;;;;;;;;;;1.94;91.75;99516.38;3208044;23;19990;-78
2022/04/29 02:18:55;;;;;;;;;;;;;;;1.96;91.54;99528.50;3208555;23;19931;-77
2022/04/29 02:20:10;;;;;;;;;;;;;;;1.99;91.43;99525.13;3207929;23;19923;-78
2022/04/29 02:21:26;;;;;;;;;;;;;;;1.95;91.94;99521.59;3208309;23;20391;-77
2022/04/29 02:22:41;;;;;;;;;;;;;;;1.95;91.98;99531.03;3207889;23;19924;-78
2022/04/29 02:23:56;;;;;;;;;;;;;;;1.91;92.16;99524.97;3207867;23;19959;-78
2022/04/29 02:25:12;;;;;;;;;;;;;;;1.90;92.67;99525.78;3207689;23;20386;-79
2022/04/29 02:26:28;;;;;;;;;;;;;;;1.87;92.44;99530.00;3208091;23;19931;-81
2022/04/29 02:27:43;;;;;;;;;;;;;;;1.83;92.92;99524.75;3208293;23;19924;-78
2022/04/29 02:28:59;;;;;;;;;;;;;;;1.83;93.23;99527.34;3208010;23;19959;-77
2022/04/29 02:30:14;;;;;;;;;;;;;;;1.82;93.15;99528.19;3208045;23;19931;-78
2022/04/29 02:31:30;;;;;;;;;;;;;;;1.83;93.55;99524.75;3208411;23;19930;-77
2022/04/29 02:32:46;;;;;;;;;;;;;;;1.83;93.55;99527.34;3208319;23;19991;-79
2022/04/29 02:34:01;;;;;;;;;;;;;;;1.85;93.89;99523.94;3208393;23;19924;-78
2022/04/29 02:35:17;;;;;;;;;;;;;;;1.78;93.15;99528.91;3208307;23;19967;-77
2022/04/29 02:36:33;;;;;;;;;;;;;;;1.75;92.97;99525.41;3207877;23;20397;-80
2022/04/29 02:37:48;;;;;;;;;;;;;;;1.70;93.08;99522.72;3208287;23;19924;-81
2022/04/29 02:39:03;;;;;;;;;;;;;;;1.64;92.38;99522.53;3207952;23;20376;-78
2022/04/29 02:40:19;;;;;;;;;;;;;;;1.58;92.31;99524.97;3207939;23;19931;-79
2022/04/29 02:41:36;;;;;;;;;;;;;;;1.58;91.48;99523.25;3208221;23;19920;-81
2022/04/29 02:42:52;;;;;;;;;;;;;;;1.53;91.44;99520.53;3207814;23;20457;-79
2022/04/29 02:44:07;;;;;;;;;;;;;;;1.53;91.44;99520.53;3208247;23;19923;-79
2022/04/29 02:45:23;;;;;;;;;;;;;;;1.49;91.73;99518.72;3208020;23;20366;-79
2022/04/29 02:48:15;;;;;;;;;;;;;;;1.43;92.67;99517.69;3212729;23;19949;-79
2022/04/29 02:49:31;;;;;;;;;;;;;;;1.44;92.78;99512.59;3208253;23;19971;-79
2022/04/29 02:50:46;;;;;;;;;;;;;;;1.48;93.24;99516.97;3208401;23;19955;-79
2022/04/29 02:52:02;;;;;;;;;;;;;;;1.54;93.33;99518.84;3208391;23;20340;-79
2022/04/29 02:53:17;;;;;;;;;;;;;;;1.54;92.79;99514.56;3208290;23;20344;-83
2022/04/29 02:54:33;;;;;;;;;;;;;;;1.57;92.48;99520.66;3208044;23;19928;-78
2022/04/29 02:55:48;;;;;;;;;;;;;;;1.57;92.05;99513.75;3208030;23;19924;-79
2022/04/29 02:57:04;;;;;;;;;;;;;;;1.57;92.71;99511.19;3208384;23;19924;-79
2022/04/29 02:58:20;;;;;;;;;;;;;;;1.55;92.42;99520.59;3208196;23;19932;-79
2022/04/29 02:59:35;;;;;;;;;;;;;;;1.52;91.96;99511.06;3208319;23;19951;-79
2022/04/29 03:00:50;;;;;;;;;;;;;;;1.52;92.20;99513.63;3208135;23;20350;-80
2022/04/29 03:02:06;;;;;;;;;;;;;;;1.51;92.42;99516.19;3208152;23;19924;-78
2022/04/29 03:03:22;;;;;;;;;;;;;;;1.52;91.90;99513.63;3208346;23;19930;-78
2022/04/29 03:04:37;;;;;;;;;;;;;;;1.50;92.08;99517.03;3208125;23;20307;-78
2022/04/29 03:05:52;;;;;;;;;;;;;;;1.49;91.59;99517.88;3208066;23;19920;-77
2022/04/29 03:07:08;;;;;;;;;;;;;;;1.46;90.93;99513.50;3208228;23;20310;-77
2022/04/29 03:08:24;;;;;;;;;;;;;;;1.44;90.79;99516.84;3207954;23;19924;-79
2022/04/29 03:09:40;;;;;;;;;;;;;;;1.35;90.86;99510.63;3208567;23;19926;-79
2022/04/29 03:10:55;;;;;;;;;;;;;;;1.33;90.72;99516.59;3208417;23;20248;-78
2022/04/29 03:12:13;;;;;;;;;;;;;;;1.33;90.82;99514.88;3208379;23;19924;-79
2022/04/29 03:13:28;;;;;;;;;;;;;;;1.34;90.52;99521.78;3208158;23;19931;-78
2022/04/29 03:14:44;;;;;;;;;;;;;;;1.29;90.98;99514.75;3208504;23;19924;-79
2022/04/29 03:15:59;;;;;;;;;;;;;;;1.29;91.31;99518.19;3208321;23;19927;-79
2022/04/29 03:18:49;;;;;;;;;;;;;;;1.23;93.43;99518.91;3213267;23;19923;-83
2022/04/29 03:20:04;;;;;;;;;;;;;;;1.21;93.34;99512.84;3207876;23;19998;-78
2022/04/29 03:21:20;;;;;;;;;;;;;;;1.18;93.23;99509.28;3209241;23;19948;-82
2022/04/29 03:22:36;;;;;;;;;;;;;;;1.15;92.64;99515.25;3208727;23;20103;-78
2022/04/29 03:23:52;;;;;;;;;;;;;;;1.10;92.59;99503.91;3208889;23;19930;-78
2022/04/29 03:25:07;;;;;;;;;;;;;;;1.08;92.90;99505.59;3208866;23;20007;-77
2022/04/29 03:26:23;;;;;;;;;;;;;;;1.05;92.42;99516.72;3209282;23;19974;-77
2022/04/29 03:27:38;;;;;;;;;;;;;;;1.01;92.02;99508.84;3206451;23;20341;-77
2022/04/29 03:28:54;;;;;;;;;;;;;;;0.94;92.78;99508.66;3208761;23;20328;-77
2022/04/29 03:30:09;;;;;;;;;;;;;;;0.97;92.94;99513.03;3209109;23;19923;-79
2022/04/29 03:31:25;;;;;;;;;;;;;;;0.97;92.99;99508.75;3209511;23;20470;-77
2022/04/29 03:32:40;;;;;;;;;;;;;;;0.99;93.24;99511.38;3207596;23;20354;-79
2022/04/29 03:33:56;;;;;;;;;;;;;;;1.01;92.58;99514.00;3209111;23;19927;-77
2022/04/29 03:35:11;;;;;;;;;;;;;;;0.91;92.00;99511.16;3208733;23;19928;-77
2022/04/29 03:36:26;;;;;;;;;;;;;;;0.87;91.83;99503.28;3208629;23;20259;-79
2022/04/29 03:37:42;;;;;;;;;;;;;;;0.85;91.89;99511.00;3214322;23;19924;-78
2022/04/29 03:38:57;;;;;;;;;;;;;;;0.84;92.01;99506.66;3209216;23;20479;-79
2022/04/29 03:40:15;;;;;;;;;;;;;;;0.87;92.33;99511.03;3209248;23;20084;-78
2022/04/29 03:41:31;;;;;;;;;;;;;;;0.81;92.70;99506.56;3208849;23;19924;-78
2022/04/29 03:42:47;;;;;;;;;;;;;;;0.80;93.31;99500.56;3208825;23;19924;-78
2022/04/29 03:44:02;;;;;;;;;;;;;;;0.88;93.61;99505.03;3208624;23;20359;-77
2022/04/29 03:45:18;;;;;;;;;;;;;;;0.89;93.57;99506.78;3208517;23;19923;-79
2022/04/29 03:46:34;;;;;;;;;;;;;;;0.90;93.17;99501.69;3208950;23;20014;-79
2022/04/29 03:47:49;;;;;;;;;;;;;;;0.91;93.08;99506.00;3208816;23;19924;-78
2022/04/29 03:50:55;;;;;;;;;;;;;;;0.87;92.53;99511.91;3177245;23;20323;-78
2022/04/29 03:52:10;;;;;;;;;;;;;;;0.86;93.04;99512.75;3176199;23;19940;-79
2022/04/29 03:53:26;;;;;;;;;;;;;;;0.87;92.80;99511.91;3197299;23;19920;-79
2022/04/29 03:54:42;;;;;;;;;;;;;;;0.86;93.25;99510.16;3208705;23;19920;-78
2022/04/29 03:55:57;;;;;;;;;;;;;;;0.87;93.37;99511.03;3208542;23;20583;-79
2022/04/29 03:57:12;;;;;;;;;;;;;;;0.89;93.25;99511.94;3208410;23;20214;-78
2022/04/29 03:58:28;;;;;;;;;;;;;;;0.92;93.53;99507.75;3208540;23;19919;-78
2022/04/29 03:59:43;;;;;;;;;;;;;;;0.92;92.77;99505.16;3208407;23;19928;-78
2022/04/29 04:00:59;;;;;;;;;;;;;;;0.91;92.74;99510.25;3208444;23;19946;-83
2022/04/29 04:02:14;;;;;;;;;;;;;;;0.90;92.26;99512.00;3208395;23;19931;-78
2022/04/29 04:03:30;;;;;;;;;;;;;;;0.87;92.39;99509.34;3208387;23;20259;-78
2022/04/29 04:04:46;;;;;;;;;;;;;;;0.88;92.11;99515.34;3208422;23;20463;-79
2022/04/29 04:07:35;;;;;;;;;;;;;;;0.86;91.72;99511.84;3213269;23;20302;-78
2022/04/29 04:08:51;;;;;;;;;;;;;;;0.84;91.57;99510.09;3208062;23;20366;-83
2022/04/29 04:10:07;;;;;;;;;;;;;;;0.81;91.52;99511.72;3208460;23;19923;-79
2022/04/29 04:11:22;;;;;;;;;;;;;;;0.84;91.56;99516.97;3209094;23;19978;-78
2022/04/29 04:12:38;;;;;;;;;;;;;;;0.84;91.40;99519.56;3208426;23;19924;-78
2022/04/29 04:13:54;;;;;;;;;;;;;;;0.83;91.67;99515.22;3208503;23;19924;-78
2022/04/29 04:15:11;;;;;;;;;;;;;;;0.82;91.71;99526.34;3208466;23;20125;-78
2022/04/29 04:16:26;;;;;;;;;;;;;;;0.82;92.04;99526.34;3208997;23;19924;-77
2022/04/29 04:17:42;;;;;;;;;;;;;;;0.81;91.84;99519.44;3208522;23;19924;-78
2022/04/29 04:18:58;;;;;;;;;;;;;;;0.75;93.12;99522.72;3208524;23;19924;-77
2022/04/29 04:20:14;;;;;;;;;;;;;;;0.74;93.11;99526.13;3208850;23;20019;-78
2022/04/29 04:21:30;;;;;;;;;;;;;;;0.77;92.73;99531.41;3208758;23;20218;-79
2022/04/29 04:22:45;;;;;;;;;;;;;;;0.80;92.54;99530.59;3208611;23;19946;-77
2022/04/29 04:24:01;;;;;;;;;;;;;;;0.81;92.20;99528.06;3208600;23;19928;-79
2022/04/29 04:25:16;;;;;;;;;;;;;;;0.80;92.09;99536.63;3208824;23;19934;-79
2022/04/29 04:26:32;;;;;;;;;;;;;;;0.81;92.11;99534.91;3208549;23;19923;-78
2022/04/29 04:27:47;;;;;;;;;;;;;;;0.83;92.30;99538.41;3209036;23;19931;-78
2022/04/29 04:29:03;;;;;;;;;;;;;;;0.88;91.84;99536.84;3208345;23;19931;-78
2022/04/29 04:30:18;;;;;;;;;;;;;;;0.90;92.00;99537.78;3208509;23;19924;-78
2022/04/29 04:31:33;;;;;;;;;;;;;;;0.93;92.24;99540.44;3208418;23;20015;-78
2022/04/29 04:32:49;;;;;;;;;;;;;;;0.96;92.57;99537.06;3208219;23;19924;-78
2022/04/29 04:34:49;;;;;;;;;;;;;;;0.99;93.33;99539.75;3208542;23;20293;-78
2022/04/29 04:35:40;;;;;;;;;;;;;;;1.06;93.04;99541.69;3210074;23;19920;-77
2022/04/29 04:36:55;;;;;;;;;;;;;;;1.08;93.21;99542.59;3207871;23;19923;-77
2022/04/29 04:38:11;;;;;;;;;;;;;;;1.12;93.68;99548.72;3207533;23;20038;-77
2022/04/29 04:39:26;;;;;;;;;;;;;;;1.18;94.07;99542.81;3207376;23;19948;-77
2022/04/29 04:40:42;;;;;;;;;;;;;;;1.18;94.46;99548.88;3207464;23;19924;-79
2022/04/29 04:41:58;;;;;;;;;;;;;;;1.31;96.59;99537.16;3207469;23;19924;-77
2022/04/29 04:43:13;;;;;;;;;;;;;;;1.27;96.40;99546.56;3207515;23;19928;-77
2022/04/29 04:44:29;;;;;;;;;;;;;;;1.33;96.17;99539.81;3207269;23;20263;-77
2022/04/29 04:45:46;;;;;;;;;;;;;;;1.38;96.61;99543.38;3207300;23;19920;-79
2022/04/29 04:47:02;;;;;;;;;;;;;;;1.42;97.70;99542.66;3206885;23;20217;-77
2022/04/29 04:48:18;;;;;;;;;;;;;;;1.46;98.31;99548.72;3207239;23;20327;-81
2022/04/29 04:49:34;;;;;;;;;;;;;;;1.49;98.85;99548.84;3207423;23;19928;-78
2022/04/29 04:50:49;;;;;;;;;;;;;;;1.50;99.37;99554.03;3207461;23;19966;-77
2022/04/29 04:52:05;;;;;;;;;;;;;;;1.55;99.82;99549.00;3206887;23;19939;-78
2022/04/29 04:53:21;;;;;;;;;;;;;;;1.59;100.00;99549.94;3207276;23;19920;-79
2022/04/29 04:54:37;;;;;;;;;;;;;;;1.63;100.00;99554.34;3207231;23;20392;-79
2022/04/29 04:55:53;;;;;;;;;;;;;;;1.66;100.00;99552.72;3207378;23;19924;-77
2022/04/29 04:57:08;;;;;;;;;;;;;;;1.71;100.00;99559.72;3207146;23;20390;-77
2022/04/29 04:58:23;;;;;;;;;;;;;;;1.74;100.00;99563.25;3207421;23;20002;-80
2022/04/29 04:59:39;;;;;;;;;;;;;;;1.77;100.00;99560.75;3207189;23;19998;-78
2022/04/29 05:00:54;;;;;;;;;;;;;;;1.87;99.83;99563.56;3206631;23;19930;-78
2022/04/29 05:02:10;;;;;;;;;;;;;;;1.91;99.87;99562.81;3207097;23;19924;-78
2022/04/29 05:03:25;;;;;;;;;;;;;;;2.02;99.49;99566.53;3204878;23;19920;-78
2022/04/29 05:04:41;;;;;;;;;;;;;;;2.06;98.95;99568.34;3206440;23;20255;-78
2022/04/29 05:05:56;;;;;;;;;;;;;;;2.14;98.86;99570.25;3207508;23;19924;-77
2022/04/29 05:07:11;;;;;;;;;;;;;;;2.14;98.73;99560.78;3207082;23;19928;-77
2022/04/29 05:08:27;;;;;;;;;;;;;;;2.23;98.37;99567.88;3206240;23;19924;-78
2022/04/29 05:09:42;;;;;;;;;;;;;;;2.20;98.65;99567.81;3206944;23;19947;-77
2022/04/29 05:10:58;;;;;;;;;;;;;;;2.34;97.75;99568.16;3206639;23;19924;-78
2022/04/29 05:12:14;;;;;;;;;;;;;;;2.38;97.57;99563.09;3207221;23;19928;-78
2022/04/29 05:13:32;;;;;;;;;;;;;;;2.44;97.73;99566.66;3206815;23;19924;-79
2022/04/29 05:14:50;;;;;;;;;;;;;;;2.44;97.63;99567.50;3211942;23;19920;-78
2022/04/29 05:16:06;;;;;;;;;;;;;;;2.53;97.07;99565.16;3206653;23;20409;-78
2022/04/29 05:17:21;;;;;;;;;;;;;;;2.50;97.21;99574.53;3206747;23;19924;-81
2022/04/29 05:18:37;;;;;;;;;;;;;;;2.53;97.32;99570.31;3206990;23;19924;-85
2022/04/29 05:19:53;;;;;;;;;;;;;;;2.62;97.26;99572.22;3206797;23;19924;-87
2022/04/29 05:21:08;;;;;;;;;;;;;;;2.63;97.05;99565.38;3207036;23;19924;-86
2022/04/29 05:22:27;;;;;;;;;;;;;;;2.81;96.82;99570.06;3207519;23;19978;-78
2022/04/29 05:23:44;;;;;;;;;;;;;;;2.88;96.34;99571.94;3209649;23;20413;-78
2022/04/29 05:25:00;;;;;;;;;;;;;;;2.97;95.93;99577.31;3207698;23;19924;-78
2022/04/29 05:26:15;;;;;;;;;;;;;;;2.99;96.34;99572.16;3206662;23;19993;-79
2022/04/29 05:27:30;;;;;;;;;;;;;;;3.04;96.33;99564.50;3207052;23;20006;-79
2022/04/29 05:28:46;;;;;;;;;;;;;;;3.05;96.40;99564.53;3207903;23;19959;-76
2022/04/29 05:30:02;;;;;;;;;;;;;;;3.09;96.45;99570.66;3207224;23;20007;-76
2022/04/29 05:31:17;;;;;;;;;;;;;;;3.03;97.38;99567.94;3207667;23;19924;-76
2022/04/29 05:32:33;;;;;;;;;;;;;;;3.03;96.77;99576.56;3207451;23;20386;-76
2022/04/29 05:33:48;;;;;;;;;;;;;;;3.18;96.50;99565.66;3207663;23;19934;-77
2022/04/29 05:35:05;;;;;;;;;;;;;;;3.29;95.72;99570.19;3207194;23;19928;-76
2022/04/29 05:36:20;;;;;;;;;;;;;;;3.27;96.13;99559.78;3120372;23;2032147;-77
2022/04/29 05:37:37;;;;;;;;;;;;;;;3.33;96.35;99565.09;3207969;23;19924;-79
2022/04/29 05:42:18;;;;;;;;;;;;;;;3.40;95.96;99566.09;3213060;23;19927;-77
2022/04/29 05:43:33;;;;;;;;;;;;;;;3.50;94.75;99564.53;3212919;23;19931;-77
2022/04/29 05:44:49;;;;;;;;;;;;;;;3.55;94.85;99560.31;3208396;23;19955;-77
2022/04/29 05:46:05;;;;;;;;;;;;;;;3.66;95.42;99565.69;3208031;23;19930;-77
2022/04/29 05:47:20;;;;;;;;;;;;;;;3.72;94.85;99567.53;3208297;23;20365;-77
2022/04/29 05:48:36;;;;;;;;;;;;;;;3.77;94.28;99566.78;3207949;23;19927;-77
2022/04/29 05:49:51;;;;;;;;;;;;;;;3.87;94.37;99566.91;3208337;23;19970;-77
2022/04/29 05:51:07;;;;;;;;;;;;;;;3.91;94.34;99564.41;3208058;23;19978;-76
2022/04/29 05:52:23;;;;;;;;;;;;;;;4.01;93.02;99572.34;3207953;23;19946;-77
2022/04/29 05:53:38;;;;;;;;;;;;;;;4.06;93.30;99566.41;3208095;23;19947;-78
2022/04/29 05:54:53;;;;;;;;;;;;;;;4.17;94.22;99563.97;3208407;23;19935;-78
2022/04/29 05:56:09;;;;;;;;;;;;;;;4.26;93.02;99565.84;3208444;23;19999;-81
2022/04/29 05:57:25;;;;;;;;;;;;;;;4.39;93.08;99564.28;3207945;23;19927;-77
2022/04/29 05:58:40;;;;;;;;;;;;;;;4.40;92.56;99568.66;3207803;23;19931;-77
2022/04/29 05:59:56;;;;;;;;;;;;;;;4.48;93.10;99563.59;3208210;23;20546;-77
2022/04/29 06:01:11;;;;;;;;;;;;;;;4.61;93.24;99562.03;3208192;23;19928;-78
2022/04/29 06:02:27;;;;;;;;;;;;;;;4.62;92.17;99569.84;3208231;23;19920;-78
2022/04/29 06:03:42;;;;;;;;;;;;;;;4.78;91.71;99564.88;3208145;23;20229;-78
2022/04/29 06:04:59;;;;;;;;;;;;;;;4.81;92.21;99559.72;3208091;23;20386;-78
2022/04/29 06:06:15;;;;;;;;;;;;;;;4.81;92.28;99562.31;3207873;23;19924;-78
2022/04/29 06:07:31;;;;;;;;;;;;;;;4.85;91.93;99563.22;3208072;23;20550;-78
2022/04/29 06:08:46;;;;;;;;;;;;;;;4.84;92.04;99567.53;3208246;23;19934;-78
2022/04/29 06:10:01;;;;;;;;;;;;;;;4.93;91.40;99556.41;3207908;23;19924;-78
2022/04/29 06:11:17;;;;;;;;;;;;;;;4.96;91.53;99564.25;3208300;23;19924;-78
2022/04/29 06:12:40;;;;;;;;;;;;;;;5.00;91.25;99562.53;3207897;23;20042;-78
2022/04/29 06:13:55;;;;;;;;;;;;;;;5.09;91.61;99558.34;3208367;23;19966;-78
2022/04/29 06:15:16;;;;;;;;;;;;;;;5.19;90.32;99566.25;3208327;23;19931;-77
2022/04/29 06:16:33;;;;;;;;;;;;;;;5.16;89.96;99556.69;3208171;23;20079;-81
2022/04/29 06:17:49;;;;;;;;;;;;;;;5.25;90.68;99560.25;3207775;23;19950;-80
2022/04/29 06:19:04;;;;;;;;;;;;;;;5.35;90.50;99557.78;3208249;23;19923;-78
2022/04/29 06:20:19;;;;;;;;;;;;;;;5.46;89.76;99563.09;3207902;23;19927;-78
2022/04/29 06:21:36;;;;;;;;;;;;;;;5.49;89.27;99563.13;3208354;23;19946;-78
2022/04/29 06:22:51;;;;;;;;;;;;;;;5.65;88.60;99561.53;3208027;23;20426;-77
2022/04/29 06:24:07;;;;;;;;;;;;;;;5.57;88.48;99560.63;3207738;23;19928;-79
2022/04/29 06:25:23;;;;;;;;;;;;;;;5.74;88.65;99560.78;3208155;23;19931;-79
2022/04/29 06:26:38;;;;;;;;;;;;;;;5.78;87.82;99565.16;3208350;23;19924;-77
2022/04/29 06:27:54;;;;;;;;;;;;;;;5.79;88.43;99561.69;3208273;23;19928;-80
2022/04/29 06:29:09;;;;;;;;;;;;;;;5.85;88.10;99562.59;3207774;23;19924;-77
2022/04/29 06:30:25;;;;;;;;;;;;;;;5.98;87.45;99564.47;3207812;23;19924;-77
2022/04/29 06:31:40;;;;;;;;;;;;;;;6.04;87.23;99563.69;3208098;23;19951;-78
2022/04/29 06:32:56;;;;;;;;;;;;;;;6.03;87.54;99562.81;3208141;23;20255;-78
2022/04/29 06:34:11;;;;;;;;;;;;;;;6.08;86.10;99561.13;3207786;23;19927;-79
2022/04/29 06:35:27;;;;;;;;;;;;;;;6.10;86.83;99552.47;3207990;23;19943;-77
2022/04/29 06:36:43;;;;;;;;;;;;;;;6.11;86.63;99560.28;3207449;23;19983;-77
2022/04/29 06:37:58;;;;;;;;;;;;;;;6.18;85.64;99562.06;3208170;23;20018;-78
2022/04/29 06:39:14;;;;;;;;;;;;;;;6.20;86.28;99564.69;3208059;23;19928;-78
2022/04/29 06:40:29;;;;;;;;;;;;;;;6.32;87.16;99562.19;3208256;23;20296;-80
2022/04/29 06:41:45;;;;;;;;;;;;;;;6.40;85.64;99564.84;3207983;23;20023;-78
2022/04/29 06:43:01;;;;;;;;;;;;;;;6.49;86.34;99566.63;3207770;23;20027;-80
2022/04/29 06:44:16;;;;;;;;;;;;;;;6.53;85.62;99560.56;3207841;23;20406;-80
2022/04/29 06:45:31;;;;;;;;;;;;;;;6.62;86.29;99565.84;3207292;23;19970;-83
2022/04/29 06:46:50;;;;;;;;;;;;;;;6.63;85.32;99562.38;3207900;23;20339;-78
2022/04/29 06:48:05;;;;;;;;;;;;;;;6.73;86.01;99555.50;3208046;23;19924;-79
2022/04/29 06:49:21;;;;;;;;;;;;;;;6.86;85.11;99561.66;3207790;23;20255;-81
2022/04/29 06:50:36;;;;;;;;;;;;;;;6.98;83.13;99557.34;3208098;23;19994;-79